createdAt,value
2023-04-24T00:00:05.465Z,83.79
2023-04-24T00:00:37.995Z,83.69
2023-04-24T00:01:10.513Z,83.79
2023-04-24T00:01:43.049Z,83.89
2023-04-24T00:02:15.639Z,83.69
2023-04-24T00:02:48.429Z,84.00
2023-04-24T00:03:20.697Z,84.00
2023-04-24T00:03:53.285Z,83.79
2023-04-24T00:04:25.810Z,83.48
2023-04-24T00:04:58.267Z,83.79
2023-04-24T00:05:30.758Z,83.79
2023-04-24T00:06:03.242Z,84.20
2023-04-24T00:06:35.856Z,84.50
2023-04-24T00:07:08.370Z,83.59
2023-04-24T00:07:40.933Z,83.59
2023-04-24T00:08:13.508Z,84.00
2023-04-24T00:08:46.016Z,83.69
2023-04-24T00:09:18.534Z,83.69
2023-04-24T00:09:51.036Z,83.69
2023-04-24T00:10:23.550Z,83.07
2023-04-24T00:10:56.077Z,83.18
2023-04-24T00:11:28.629Z,83.48
2023-04-24T00:12:01.097Z,83.69
2023-04-24T00:12:33.658Z,83.48
2023-04-24T00:13:06.174Z,83.69
2023-04-24T00:13:38.702Z,83.28
2023-04-24T00:14:11.218Z,83.38
2023-04-24T00:14:43.767Z,83.38
2023-04-24T00:15:16.260Z,83.38
2023-04-24T00:15:48.816Z,83.28
2023-04-24T00:16:21.347Z,82.87
2023-04-24T00:16:53.944Z,83.28
2023-04-24T00:17:26.438Z,83.28
2023-04-24T00:17:58.987Z,83.18
2023-04-24T00:18:31.479Z,83.18
2023-04-24T00:19:03.999Z,83.18
2023-04-24T00:19:36.570Z,82.87
2023-04-24T00:20:09.172Z,83.07
2023-04-24T00:20:41.708Z,83.28
2023-04-24T00:21:14.242Z,83.18
2023-04-24T00:21:46.747Z,83.18
2023-04-24T00:22:19.320Z,83.18
2023-04-24T00:22:51.837Z,83.18
2023-04-24T00:23:24.390Z,82.87
2023-04-24T00:23:56.881Z,83.18
2023-04-24T00:24:29.396Z,82.87
2023-04-24T00:25:01.954Z,82.97
2023-04-24T00:25:34.463Z,83.48
2023-04-24T00:26:07.003Z,83.48
2023-04-24T00:26:39.524Z,83.48
2023-04-24T00:27:12.048Z,82.97
2023-04-24T00:27:44.622Z,83.07
2023-04-24T00:28:17.159Z,83.07
2023-04-24T00:28:49.661Z,82.77
2023-04-24T00:29:22.380Z,83.07
2023-04-24T00:29:54.881Z,82.87
2023-04-24T00:30:27.387Z,82.77
2023-04-24T00:30:59.881Z,82.77
2023-04-24T00:31:32.477Z,82.36
2023-04-24T00:32:05.083Z,82.77
2023-04-24T00:32:37.568Z,82.77
2023-04-24T00:33:10.040Z,82.97
2023-04-24T00:33:42.588Z,82.87
2023-04-24T00:34:15.126Z,82.67
2023-04-24T00:34:47.626Z,83.07
2023-04-24T00:35:20.181Z,83.18
2023-04-24T00:35:52.692Z,83.07
2023-04-24T00:36:25.209Z,82.87
2023-04-24T00:36:57.739Z,82.87
2023-04-24T00:37:30.245Z,82.77
2023-04-24T00:38:02.813Z,82.46
2023-04-24T00:38:35.357Z,82.46
2023-04-24T00:39:07.861Z,82.46
2023-04-24T00:39:40.621Z,82.56
2023-04-24T00:40:12.888Z,82.77
2023-04-24T00:40:45.424Z,82.26
2023-04-24T00:41:17.937Z,82.05
2023-04-24T00:41:50.433Z,82.15
2023-04-24T00:42:22.949Z,82.26
2023-04-24T00:42:55.496Z,82.26
2023-04-24T00:43:28.031Z,82.36
2023-04-24T00:44:00.566Z,82.56
2023-04-24T00:44:33.093Z,82.46
2023-04-24T00:45:05.573Z,82.46
2023-04-24T00:45:38.079Z,82.26
2023-04-24T00:46:10.654Z,82.67
2023-04-24T00:46:43.223Z,82.77
2023-04-24T00:47:15.655Z,82.67
2023-04-24T00:47:48.225Z,82.46
2023-04-24T00:48:20.757Z,82.26
2023-04-24T00:48:53.248Z,82.36
2023-04-24T00:49:25.743Z,82.46
2023-04-24T00:49:58.268Z,82.15
2023-04-24T00:50:30.814Z,82.05
2023-04-24T00:51:03.394Z,82.05
2023-04-24T00:51:35.941Z,82.26
2023-04-24T00:52:08.479Z,81.85
2023-04-24T00:52:41.034Z,81.85
2023-04-24T00:53:13.557Z,82.15
2023-04-24T00:53:46.094Z,82.05
2023-04-24T00:54:18.608Z,82.15
2023-04-24T00:54:51.229Z,82.36
2023-04-24T00:55:23.719Z,82.36
2023-04-24T00:55:56.256Z,82.60
2023-04-24T00:56:28.777Z,82.40
2023-04-24T00:57:01.306Z,82.29
2023-04-24T00:57:33.842Z,82.50
2023-04-24T00:58:06.325Z,82.50
2023-04-24T00:58:38.852Z,82.50
2023-04-24T00:59:11.400Z,82.50
2023-04-24T00:59:44.079Z,82.50
2023-04-24T01:00:16.457Z,82.40
2023-04-24T01:00:48.968Z,82.29
2023-04-24T01:01:21.529Z,82.60
2023-04-24T01:01:54.022Z,82.09
2023-04-24T01:02:26.608Z,82.20
2023-04-24T01:02:59.232Z,82.60
2023-04-24T01:03:31.747Z,82.50
2023-04-24T01:04:04.290Z,82.50
2023-04-24T01:04:36.736Z,81.79
2023-04-24T01:05:09.152Z,82.09
2023-04-24T01:05:41.693Z,82.20
2023-04-24T01:06:14.242Z,81.99
2023-04-24T01:06:47.583Z,82.20
2023-04-24T01:07:20.131Z,82.09
2023-04-24T01:07:52.664Z,81.79
2023-04-24T01:08:25.159Z,81.99
2023-04-24T01:08:57.673Z,81.79
2023-04-24T01:09:30.191Z,81.88
2023-04-24T01:10:02.699Z,81.79
2023-04-24T01:10:35.210Z,81.48
2023-04-24T01:11:07.863Z,81.68
2023-04-24T01:11:40.410Z,81.58
2023-04-24T01:12:12.942Z,81.79
2023-04-24T01:12:45.470Z,81.79
2023-04-24T01:13:17.973Z,81.79
2023-04-24T01:13:50.513Z,81.58
2023-04-24T01:14:23.015Z,81.82
2023-04-24T01:14:55.549Z,81.62
2023-04-24T01:15:28.072Z,81.51
2023-04-24T01:16:00.632Z,81.72
2023-04-24T01:16:33.105Z,81.51
2023-04-24T01:17:05.671Z,81.41
2023-04-24T01:17:38.227Z,81.41
2023-04-24T01:18:10.762Z,81.51
2023-04-24T01:18:43.289Z,81.41
2023-04-24T01:19:15.821Z,81.51
2023-04-24T01:19:48.366Z,81.72
2023-04-24T01:20:20.864Z,81.51
2023-04-24T01:20:53.373Z,81.51
2023-04-24T01:21:25.882Z,81.82
2023-04-24T01:21:58.399Z,82.03
2023-04-24T01:22:30.907Z,82.13
2023-04-24T01:23:03.426Z,82.34
2023-04-24T01:23:35.961Z,82.64
2023-04-24T01:24:08.465Z,82.43
2023-04-24T01:24:41.040Z,82.34
2023-04-24T01:25:13.568Z,82.43
2023-04-24T01:25:46.093Z,82.34
2023-04-24T01:26:18.597Z,82.64
2023-04-24T01:26:51.122Z,82.95
2023-04-24T01:27:23.621Z,82.64
2023-04-24T01:27:56.127Z,82.64
2023-04-24T01:28:28.682Z,82.54
2023-04-24T01:29:01.183Z,82.84
2023-04-24T01:29:33.716Z,82.84
2023-04-24T01:30:06.229Z,82.54
2023-04-24T01:30:38.762Z,82.54
2023-04-24T01:31:11.332Z,82.75
2023-04-24T01:31:43.925Z,82.54
2023-04-24T01:32:16.340Z,82.60
2023-04-24T01:32:48.996Z,82.43
2023-04-24T01:33:21.400Z,82.60
2023-04-24T01:33:53.948Z,82.60
2023-04-24T01:34:26.499Z,82.70
2023-04-24T01:34:58.989Z,82.40
2023-04-24T01:35:31.502Z,82.60
2023-04-24T01:36:04.018Z,82.50
2023-04-24T01:36:36.532Z,82.50
2023-04-24T01:37:09.042Z,82.81
2023-04-24T01:37:41.595Z,82.60
2023-04-24T01:38:14.082Z,82.40
2023-04-24T01:38:46.590Z,82.40
2023-04-24T01:39:19.097Z,83.01
2023-04-24T01:39:51.610Z,82.91
2023-04-24T01:40:24.134Z,82.70
2023-04-24T01:40:56.618Z,82.91
2023-04-24T01:41:29.134Z,82.50
2023-04-24T01:42:01.671Z,82.81
2023-04-24T01:42:34.239Z,82.70
2023-04-24T01:43:06.743Z,82.91
2023-04-24T01:43:39.276Z,83.11
2023-04-24T01:44:11.781Z,83.11
2023-04-24T01:44:44.330Z,82.91
2023-04-24T01:45:16.845Z,83.01
2023-04-24T01:45:49.369Z,82.91
2023-04-24T01:46:21.902Z,82.50
2023-04-24T01:46:54.452Z,82.70
2023-04-24T01:47:26.925Z,82.91
2023-04-24T01:47:59.521Z,83.22
2023-04-24T01:48:32.036Z,83.32
2023-04-24T01:49:04.545Z,82.70
2023-04-24T01:49:37.090Z,82.81
2023-04-24T01:50:09.616Z,82.91
2023-04-24T01:50:42.119Z,83.01
2023-04-24T01:51:14.668Z,82.91
2023-04-24T01:51:47.157Z,82.50
2023-04-24T01:52:19.693Z,82.40
2023-04-24T01:52:52.195Z,82.29
2023-04-24T01:53:24.708Z,82.20
2023-04-24T01:53:57.220Z,82.50
2023-04-24T01:54:29.725Z,82.70
2023-04-24T01:55:02.210Z,82.50
2023-04-24T01:55:34.758Z,82.60
2023-04-24T01:56:07.249Z,82.50
2023-04-24T01:56:39.783Z,82.40
2023-04-24T01:57:12.303Z,82.60
2023-04-24T01:57:44.917Z,82.81
2023-04-24T01:58:17.454Z,82.40
2023-04-24T01:58:51.509Z,82.60
2023-04-24T01:59:24.695Z,82.70
2023-04-24T01:59:57.188Z,82.91
2023-04-24T02:00:29.766Z,83.01
2023-04-24T02:01:02.269Z,82.81
2023-04-24T02:01:34.766Z,82.60
2023-04-24T02:02:07.372Z,82.81
2023-04-24T02:02:39.962Z,82.50
2023-04-24T02:03:12.461Z,82.29
2023-04-24T02:03:45.058Z,82.60
2023-04-24T02:04:17.479Z,82.81
2023-04-24T02:04:49.891Z,83.01
2023-04-24T02:05:22.392Z,82.70
2023-04-24T02:05:54.891Z,82.91
2023-04-24T02:06:27.431Z,82.60
2023-04-24T02:06:59.950Z,82.29
2023-04-24T02:07:32.508Z,82.50
2023-04-24T02:08:05.059Z,82.50
2023-04-24T02:08:37.564Z,82.70
2023-04-24T02:09:10.041Z,82.70
2023-04-24T02:09:42.760Z,82.70
2023-04-24T02:10:15.021Z,82.29
2023-04-24T02:10:47.601Z,82.40
2023-04-24T02:11:20.164Z,82.50
2023-04-24T02:11:52.683Z,82.50
2023-04-24T02:12:25.213Z,82.60
2023-04-24T02:12:57.740Z,82.50
2023-04-24T02:13:30.258Z,82.50
2023-04-24T02:14:02.771Z,82.29
2023-04-24T02:14:35.313Z,81.99
2023-04-24T02:15:07.835Z,82.20
2023-04-24T02:15:40.350Z,82.20
2023-04-24T02:16:12.912Z,82.29
2023-04-24T02:16:45.570Z,82.13
2023-04-24T02:17:17.968Z,82.23
2023-04-24T02:17:50.662Z,82.60
2023-04-24T02:18:23.032Z,82.95
2023-04-24T02:18:55.534Z,82.54
2023-04-24T02:19:28.041Z,82.64
2023-04-24T02:20:00.577Z,82.95
2023-04-24T02:20:33.740Z,82.75
2023-04-24T02:21:06.258Z,82.95
2023-04-24T02:21:38.768Z,83.15
2023-04-24T02:22:11.277Z,82.95
2023-04-24T02:22:43.795Z,83.05
2023-04-24T02:23:16.334Z,83.05
2023-04-24T02:23:48.831Z,82.75
2023-04-24T02:24:21.347Z,82.84
2023-04-24T02:24:53.859Z,83.05
2023-04-24T02:25:26.411Z,82.95
2023-04-24T02:25:58.908Z,83.15
2023-04-24T02:26:31.413Z,83.15
2023-04-24T02:27:03.909Z,83.46
2023-04-24T02:27:36.417Z,83.25
2023-04-24T02:28:08.923Z,83.46
2023-04-24T02:28:41.494Z,83.36
2023-04-24T02:29:14.040Z,82.84
2023-04-24T02:29:46.482Z,82.84
2023-04-24T02:30:18.977Z,83.25
2023-04-24T02:30:51.486Z,83.15
2023-04-24T02:31:24.077Z,83.25
2023-04-24T02:31:57.464Z,83.56
2023-04-24T02:32:29.949Z,83.66
2023-04-24T02:33:02.463Z,83.76
2023-04-24T02:33:35.035Z,83.76
2023-04-24T02:34:07.504Z,83.56
2023-04-24T02:34:39.999Z,83.25
2023-04-24T02:35:12.589Z,83.15
2023-04-24T02:35:45.101Z,83.05
2023-04-24T02:36:17.668Z,83.46
2023-04-24T02:36:50.209Z,83.25
2023-04-24T02:37:22.761Z,83.25
2023-04-24T02:37:55.259Z,83.15
2023-04-24T02:38:27.768Z,83.46
2023-04-24T02:39:00.309Z,83.50
2023-04-24T02:39:32.827Z,83.60
2023-04-24T02:40:05.358Z,83.70
2023-04-24T02:40:37.849Z,83.70
2023-04-24T02:41:10.344Z,83.81
2023-04-24T02:41:42.879Z,83.70
2023-04-24T02:42:15.361Z,83.70
2023-04-24T02:42:47.869Z,83.91
2023-04-24T02:43:20.380Z,83.81
2023-04-24T02:43:53.436Z,84.11
2023-04-24T02:44:25.903Z,84.31
2023-04-24T02:44:58.422Z,84.11
2023-04-24T02:45:30.952Z,84.11
2023-04-24T02:46:03.489Z,84.42
2023-04-24T02:46:35.947Z,84.72
2023-04-24T02:47:08.451Z,85.14
2023-04-24T02:47:40.977Z,84.87
2023-04-24T02:48:13.452Z,84.87
2023-04-24T02:48:46.036Z,84.77
2023-04-24T02:49:18.538Z,84.97
2023-04-24T02:49:51.109Z,84.77
2023-04-24T02:50:23.605Z,84.87
2023-04-24T02:50:56.138Z,84.77
2023-04-24T02:51:28.685Z,85.07
2023-04-24T02:52:01.224Z,85.07
2023-04-24T02:52:33.761Z,85.17
2023-04-24T02:53:06.291Z,85.28
2023-04-24T02:53:38.875Z,85.28
2023-04-24T02:54:11.377Z,85.48
2023-04-24T02:54:43.913Z,85.38
2023-04-24T02:55:16.397Z,84.97
2023-04-24T02:55:48.889Z,85.28
2023-04-24T02:56:21.467Z,85.17
2023-04-24T02:56:54.013Z,85.07
2023-04-24T02:57:26.532Z,85.07
2023-04-24T02:57:59.108Z,85.28
2023-04-24T02:58:31.614Z,85.69
2023-04-24T02:59:04.195Z,85.69
2023-04-24T02:59:36.722Z,85.48
2023-04-24T03:00:09.234Z,85.69
2023-04-24T03:00:41.752Z,85.58
2023-04-24T03:01:14.307Z,85.58
2023-04-24T03:01:46.838Z,85.48
2023-04-24T03:02:19.410Z,85.28
2023-04-24T03:02:51.946Z,85.17
2023-04-24T03:03:24.455Z,85.38
2023-04-24T03:03:56.994Z,85.63
2023-04-24T03:04:29.443Z,85.83
2023-04-24T03:05:01.829Z,86.04
2023-04-24T03:05:34.323Z,86.24
2023-04-24T03:06:06.838Z,86.24
2023-04-24T03:06:39.371Z,86.24
2023-04-24T03:07:11.876Z,86.14
2023-04-24T03:07:44.369Z,86.04
2023-04-24T03:08:16.860Z,86.34
2023-04-24T03:08:49.360Z,86.14
2023-04-24T03:09:21.903Z,86.44
2023-04-24T03:09:54.429Z,86.24
2023-04-24T03:10:26.953Z,86.24
2023-04-24T03:10:59.470Z,86.24
2023-04-24T03:11:32.012Z,86.34
2023-04-24T03:12:04.498Z,86.34
2023-04-24T03:12:37.015Z,86.44
2023-04-24T03:13:09.527Z,86.55
2023-04-24T03:13:42.104Z,86.55
2023-04-24T03:14:14.604Z,86.65
2023-04-24T03:14:47.110Z,86.44
2023-04-24T03:15:19.626Z,86.44
2023-04-24T03:15:52.147Z,86.55
2023-04-24T03:16:24.650Z,86.44
2023-04-24T03:16:57.211Z,86.55
2023-04-24T03:17:29.734Z,86.44
2023-04-24T03:18:02.260Z,86.55
2023-04-24T03:18:34.761Z,86.44
2023-04-24T03:19:07.253Z,86.44
2023-04-24T03:19:39.812Z,86.65
2023-04-24T03:20:12.267Z,86.65
2023-04-24T03:20:44.758Z,86.65
2023-04-24T03:21:17.242Z,86.55
2023-04-24T03:21:49.822Z,86.44
2023-04-24T03:22:22.329Z,86.34
2023-04-24T03:22:54.852Z,86.44
2023-04-24T03:23:27.395Z,86.44
2023-04-24T03:23:59.952Z,86.34
2023-04-24T03:24:32.464Z,86.44
2023-04-24T03:25:04.957Z,86.34
2023-04-24T03:25:37.494Z,86.55
2023-04-24T03:26:10.012Z,86.65
2023-04-24T03:26:42.534Z,86.44
2023-04-24T03:27:15.040Z,86.34
2023-04-24T03:27:47.558Z,86.55
2023-04-24T03:28:20.068Z,86.65
2023-04-24T03:28:52.585Z,86.55
2023-04-24T03:29:25.079Z,86.55
2023-04-24T03:29:57.618Z,86.65
2023-04-24T03:30:30.173Z,86.65
2023-04-24T03:31:02.742Z,86.96
2023-04-24T03:31:35.285Z,86.75
2023-04-24T03:32:07.753Z,86.75
2023-04-24T03:32:40.316Z,86.85
2023-04-24T03:33:12.794Z,86.55
2023-04-24T03:33:45.329Z,86.44
2023-04-24T03:34:17.845Z,86.65
2023-04-24T03:34:50.356Z,86.44
2023-04-24T03:35:22.874Z,86.65
2023-04-24T03:35:55.367Z,86.75
2023-04-24T03:36:27.956Z,86.90
2023-04-24T03:37:00.491Z,86.99
2023-04-24T03:37:32.988Z,86.99
2023-04-24T03:38:05.528Z,87.20
2023-04-24T03:38:37.999Z,87.10
2023-04-24T03:39:10.551Z,87.20
2023-04-24T03:39:43.172Z,87.20
2023-04-24T03:40:15.548Z,87.20
2023-04-24T03:40:48.038Z,86.99
2023-04-24T03:41:20.545Z,87.10
2023-04-24T03:41:53.033Z,87.10
2023-04-24T03:42:25.598Z,87.20
2023-04-24T03:42:58.053Z,87.10
2023-04-24T03:43:30.574Z,87.10
2023-04-24T03:44:03.095Z,87.41
2023-04-24T03:44:35.624Z,87.61
2023-04-24T03:45:08.172Z,88.02
2023-04-24T03:45:40.677Z,88.23
2023-04-24T03:46:13.216Z,88.64
2023-04-24T03:46:45.721Z,88.84
2023-04-24T03:47:18.226Z,88.53
2023-04-24T03:47:50.821Z,88.94
2023-04-24T03:48:23.243Z,89.04
2023-04-24T03:48:55.783Z,89.56
2023-04-24T03:49:28.274Z,89.87
2023-04-24T03:50:00.829Z,89.56
2023-04-24T03:50:33.331Z,89.97
2023-04-24T03:51:05.863Z,90.07
2023-04-24T03:51:38.386Z,90.42
2023-04-24T03:52:10.876Z,90.22
2023-04-24T03:52:43.376Z,90.32
2023-04-24T03:53:15.879Z,90.83
2023-04-24T03:53:48.389Z,91.14
2023-04-24T03:54:20.894Z,90.93
2023-04-24T03:54:53.387Z,90.83
2023-04-24T03:55:25.881Z,91.14
2023-04-24T03:55:58.388Z,91.14
2023-04-24T03:56:30.958Z,90.93
2023-04-24T03:57:03.436Z,91.14
2023-04-24T03:57:35.961Z,91.14
2023-04-24T03:58:08.487Z,91.03
2023-04-24T03:58:40.987Z,90.83
2023-04-24T03:59:13.516Z,91.24
2023-04-24T03:59:46.019Z,91.14
2023-04-24T04:00:18.540Z,91.35
2023-04-24T04:00:51.037Z,91.44
2023-04-24T04:01:23.554Z,91.44
2023-04-24T04:01:56.047Z,91.55
2023-04-24T04:02:28.648Z,91.49
2023-04-24T04:03:01.232Z,91.35
2023-04-24T04:03:33.781Z,91.38
2023-04-24T04:04:06.321Z,91.35
2023-04-24T04:04:38.899Z,91.38
2023-04-24T04:05:11.144Z,91.69
2023-04-24T04:05:43.556Z,91.69
2023-04-24T04:06:16.049Z,91.44
2023-04-24T04:06:48.521Z,91.49
2023-04-24T04:07:21.025Z,91.49
2023-04-24T04:07:53.522Z,91.28
2023-04-24T04:08:26.030Z,91.18
2023-04-24T04:08:58.551Z,91.38
2023-04-24T04:09:31.044Z,91.59
2023-04-24T04:10:03.545Z,91.69
2023-04-24T04:10:36.038Z,91.28
2023-04-24T04:11:08.572Z,91.08
2023-04-24T04:11:41.065Z,91.08
2023-04-24T04:12:13.563Z,90.87
2023-04-24T04:12:46.061Z,90.97
2023-04-24T04:13:18.585Z,91.08
2023-04-24T04:13:51.151Z,91.18
2023-04-24T04:14:23.612Z,91.08
2023-04-24T04:14:56.127Z,90.87
2023-04-24T04:15:35.700Z,90.97
2023-04-24T04:16:08.262Z,90.77
2023-04-24T04:16:40.736Z,91.08
2023-04-24T04:17:13.212Z,91.18
2023-04-24T04:17:45.723Z,91.28
2023-04-24T04:18:18.231Z,90.97
2023-04-24T04:18:50.729Z,90.97
2023-04-24T04:19:23.199Z,90.87
2023-04-24T04:19:55.664Z,90.97
2023-04-24T04:20:28.163Z,90.97
2023-04-24T04:21:00.660Z,90.97
2023-04-24T04:21:33.166Z,90.87
2023-04-24T04:22:05.650Z,90.77
2023-04-24T04:22:38.181Z,90.83
2023-04-24T04:23:10.677Z,90.83
2023-04-24T04:23:43.195Z,90.77
2023-04-24T04:24:15.719Z,90.77
2023-04-24T04:24:48.251Z,90.42
2023-04-24T04:25:20.732Z,90.11
2023-04-24T04:25:53.236Z,90.01
2023-04-24T04:26:25.802Z,89.75
2023-04-24T04:26:58.301Z,89.90
2023-04-24T04:27:30.813Z,90.01
2023-04-24T04:28:03.336Z,90.22
2023-04-24T04:28:43.601Z,90.22
2023-04-24T04:29:18.506Z,90.22
2023-04-24T04:29:48.640Z,90.22
2023-04-24T04:30:21.153Z,90.32
2023-04-24T04:30:53.689Z,89.81
2023-04-24T04:31:26.221Z,89.90
2023-04-24T04:31:58.838Z,89.90
2023-04-24T04:32:31.371Z,89.81
2023-04-24T04:33:03.894Z,90.01
2023-04-24T04:33:36.354Z,89.90
2023-04-24T04:34:08.868Z,89.90
2023-04-24T04:34:41.412Z,90.01
2023-04-24T04:35:13.903Z,89.70
2023-04-24T04:35:46.395Z,90.01
2023-04-24T04:36:18.916Z,90.11
2023-04-24T04:36:51.446Z,90.52
2023-04-24T04:37:23.983Z,90.01
2023-04-24T04:37:56.503Z,89.81
2023-04-24T04:38:29.013Z,89.81
2023-04-24T04:39:01.593Z,89.81
2023-04-24T04:39:35.101Z,89.70
2023-04-24T04:40:07.618Z,89.70
2023-04-24T04:40:40.175Z,89.60
2023-04-24T04:41:12.701Z,89.81
2023-04-24T04:41:46.086Z,89.90
2023-04-24T04:42:18.658Z,90.01
2023-04-24T04:42:58.935Z,90.11
2023-04-24T04:43:31.422Z,89.90
2023-04-24T04:44:03.931Z,89.60
2023-04-24T04:44:36.454Z,89.60
2023-04-24T04:45:08.936Z,89.70
2023-04-24T04:45:41.524Z,89.81
2023-04-24T04:46:14.026Z,89.81
2023-04-24T04:46:46.537Z,89.90
2023-04-24T04:47:19.087Z,89.60
2023-04-24T04:47:51.592Z,89.50
2023-04-24T04:48:24.106Z,89.70
2023-04-24T04:48:56.608Z,89.70
2023-04-24T04:49:29.145Z,90.01
2023-04-24T04:50:01.657Z,89.70
2023-04-24T04:50:34.405Z,89.60
2023-04-24T04:51:06.804Z,89.50
2023-04-24T04:51:40.679Z,89.70
2023-04-24T04:52:11.822Z,89.81
2023-04-24T04:52:44.387Z,90.11
2023-04-24T04:53:16.881Z,89.90
2023-04-24T04:53:49.400Z,90.22
2023-04-24T04:54:21.903Z,90.11
2023-04-24T04:54:54.436Z,90.01
2023-04-24T04:55:26.994Z,90.11
2023-04-24T04:56:06.575Z,90.11
2023-04-24T04:56:39.067Z,90.22
2023-04-24T04:57:11.542Z,89.81
2023-04-24T04:57:44.027Z,89.70
2023-04-24T04:58:16.553Z,89.70
2023-04-24T04:58:49.024Z,89.81
2023-04-24T04:59:21.515Z,90.11
2023-04-24T04:59:54.026Z,90.11
2023-04-24T05:00:26.541Z,89.90
2023-04-24T05:00:59.070Z,89.90
2023-04-24T05:01:31.573Z,89.81
2023-04-24T05:02:04.099Z,89.81
2023-04-24T05:02:36.635Z,90.32
2023-04-24T05:03:19.848Z,90.32
2023-04-24T05:03:41.739Z,90.11
2023-04-24T05:04:14.278Z,89.81
2023-04-24T05:04:47.004Z,90.11
2023-04-24T05:05:19.107Z,90.11
2023-04-24T05:05:51.601Z,89.90
2023-04-24T05:06:24.611Z,90.01
2023-04-24T05:06:56.608Z,89.90
2023-04-24T05:07:29.107Z,89.81
2023-04-24T05:08:01.613Z,89.70
2023-04-24T05:08:34.128Z,89.90
2023-04-24T05:09:06.625Z,90.01
2023-04-24T05:09:39.144Z,89.70
2023-04-24T05:10:11.667Z,89.60
2023-04-24T05:10:44.162Z,89.29
2023-04-24T05:11:16.670Z,89.50
2023-04-24T05:11:49.199Z,89.50
2023-04-24T05:12:21.712Z,89.09
2023-04-24T05:12:54.218Z,88.98
2023-04-24T05:13:38.371Z,88.88
2023-04-24T05:13:59.240Z,89.09
2023-04-24T05:14:31.761Z,88.98
2023-04-24T05:15:04.247Z,88.88
2023-04-24T05:15:36.788Z,89.09
2023-04-24T05:16:09.295Z,89.09
2023-04-24T05:16:41.828Z,89.09
2023-04-24T05:17:14.384Z,88.78
2023-04-24T05:17:46.866Z,88.78
2023-04-24T05:18:19.329Z,88.98
2023-04-24T05:18:51.835Z,88.88
2023-04-24T05:19:24.404Z,88.88
2023-04-24T05:19:56.882Z,88.84
2023-04-24T05:20:29.368Z,88.84
2023-04-24T05:21:01.892Z,88.88
2023-04-24T05:21:34.392Z,88.94
2023-04-24T05:22:07.036Z,89.15
2023-04-24T05:22:39.545Z,89.04
2023-04-24T05:23:12.025Z,89.04
2023-04-24T05:23:44.539Z,88.94
2023-04-24T05:24:17.062Z,88.64
2023-04-24T05:24:49.567Z,88.53
2023-04-24T05:25:22.069Z,88.43
2023-04-24T05:25:54.567Z,88.33
2023-04-24T05:26:27.125Z,88.53
2023-04-24T05:26:59.593Z,89.04
2023-04-24T05:27:32.138Z,88.84
2023-04-24T05:28:04.613Z,88.74
2023-04-24T05:28:37.099Z,88.33
2023-04-24T05:29:09.596Z,88.23
2023-04-24T05:29:42.251Z,88.12
2023-04-24T05:30:14.594Z,88.23
2023-04-24T05:30:47.111Z,88.33
2023-04-24T05:31:19.658Z,88.33
2023-04-24T05:31:52.171Z,88.12
2023-04-24T05:32:24.725Z,88.02
2023-04-24T05:32:57.466Z,87.92
2023-04-24T05:33:29.926Z,87.82
2023-04-24T05:34:02.432Z,87.92
2023-04-24T05:34:34.937Z,87.92
2023-04-24T05:35:07.432Z,87.92
2023-04-24T05:35:39.927Z,88.02
2023-04-24T05:36:12.424Z,88.12
2023-04-24T05:36:44.929Z,88.02
2023-04-24T05:37:17.402Z,87.92
2023-04-24T05:37:49.984Z,87.92
2023-04-24T05:38:22.415Z,87.92
2023-04-24T05:38:54.936Z,88.02
2023-04-24T05:39:27.453Z,87.92
2023-04-24T05:39:59.962Z,87.92
2023-04-24T05:40:32.490Z,87.92
2023-04-24T05:41:05.239Z,87.92
2023-04-24T05:41:37.734Z,87.71
2023-04-24T05:42:10.452Z,87.51
2023-04-24T05:42:42.977Z,87.30
2023-04-24T05:43:15.576Z,87.51
2023-04-24T05:43:48.074Z,87.51
2023-04-24T05:44:20.603Z,87.61
2023-04-24T05:44:53.564Z,87.51
2023-04-24T05:45:25.651Z,87.37
2023-04-24T05:45:58.205Z,87.10
2023-04-24T05:46:30.716Z,87.20
2023-04-24T05:47:03.194Z,87.20
2023-04-24T05:47:35.724Z,87.10
2023-04-24T05:48:08.273Z,87.51
2023-04-24T05:48:40.783Z,87.26
2023-04-24T05:49:13.289Z,87.16
2023-04-24T05:49:45.863Z,87.26
2023-04-24T05:50:18.313Z,87.47
2023-04-24T05:50:50.823Z,87.57
2023-04-24T05:51:23.320Z,87.57
2023-04-24T05:51:55.816Z,87.37
2023-04-24T05:52:28.363Z,87.16
2023-04-24T05:53:00.847Z,87.37
2023-04-24T05:53:33.353Z,87.67
2023-04-24T05:54:05.855Z,87.47
2023-04-24T05:54:38.353Z,87.06
2023-04-24T05:55:10.856Z,87.06
2023-04-24T05:55:43.345Z,87.06
2023-04-24T05:56:15.856Z,86.96
2023-04-24T05:56:48.364Z,86.96
2023-04-24T05:57:20.856Z,86.75
2023-04-24T05:57:53.343Z,86.55
2023-04-24T05:58:25.842Z,86.44
2023-04-24T05:58:58.356Z,86.85
2023-04-24T05:59:30.840Z,87.26
2023-04-24T06:00:03.377Z,87.26
2023-04-24T06:00:35.890Z,87.06
2023-04-24T06:01:08.411Z,87.06
2023-04-24T06:01:40.965Z,86.96
2023-04-24T06:02:13.521Z,86.96
2023-04-24T06:02:46.146Z,86.96
2023-04-24T06:03:18.509Z,87.16
2023-04-24T06:03:51.050Z,86.75
2023-04-24T06:04:23.572Z,86.69
2023-04-24T06:04:56.022Z,86.75
2023-04-24T06:05:28.485Z,86.65
2023-04-24T06:06:00.929Z,86.96
2023-04-24T06:06:33.428Z,86.85
2023-04-24T06:07:05.951Z,86.85
2023-04-24T06:07:38.439Z,87.06
2023-04-24T06:08:10.936Z,86.85
2023-04-24T06:08:43.458Z,86.18
2023-04-24T06:09:15.950Z,86.55
2023-04-24T06:09:48.496Z,86.65
2023-04-24T06:10:20.998Z,86.65
2023-04-24T06:10:53.512Z,86.75
2023-04-24T06:11:26.011Z,86.75
2023-04-24T06:11:58.529Z,86.65
2023-04-24T06:12:31.043Z,86.55
2023-04-24T06:13:03.521Z,86.55
2023-04-24T06:13:36.034Z,86.65
2023-04-24T06:14:08.535Z,86.55
2023-04-24T06:14:41.068Z,86.65
2023-04-24T06:15:13.553Z,86.79
2023-04-24T06:15:46.026Z,86.75
2023-04-24T06:16:18.561Z,86.96
2023-04-24T06:16:51.102Z,86.85
2023-04-24T06:17:23.531Z,86.34
2023-04-24T06:17:56.045Z,86.34
2023-04-24T06:18:28.504Z,86.24
2023-04-24T06:19:01.073Z,86.48
2023-04-24T06:19:33.592Z,86.55
2023-04-24T06:20:06.099Z,86.44
2023-04-24T06:20:38.611Z,86.44
2023-04-24T06:21:11.107Z,86.48
2023-04-24T06:21:43.659Z,86.44
2023-04-24T06:22:16.147Z,86.55
2023-04-24T06:22:48.658Z,86.14
2023-04-24T06:23:21.159Z,85.97
2023-04-24T06:23:53.642Z,86.07
2023-04-24T06:24:26.142Z,86.07
2023-04-24T06:24:58.655Z,86.38
2023-04-24T06:25:31.145Z,86.79
2023-04-24T06:26:03.643Z,86.28
2023-04-24T06:26:36.157Z,86.07
2023-04-24T06:27:08.643Z,86.18
2023-04-24T06:27:41.138Z,85.87
2023-04-24T06:28:13.623Z,86.07
2023-04-24T06:28:46.151Z,86.07
2023-04-24T06:29:18.620Z,86.28
2023-04-24T06:29:51.111Z,86.18
2023-04-24T06:30:23.595Z,86.07
2023-04-24T06:30:56.128Z,85.97
2023-04-24T06:31:28.662Z,85.87
2023-04-24T06:32:01.189Z,85.97
2023-04-24T06:32:33.665Z,86.07
2023-04-24T06:33:16.851Z,85.97
2023-04-24T06:33:38.688Z,85.77
2023-04-24T06:34:11.182Z,86.07
2023-04-24T06:34:43.662Z,86.48
2023-04-24T06:35:16.233Z,86.38
2023-04-24T06:35:48.699Z,85.97
2023-04-24T06:36:21.185Z,86.28
2023-04-24T06:36:53.741Z,86.38
2023-04-24T06:37:26.242Z,86.48
2023-04-24T06:37:58.746Z,86.28
2023-04-24T06:38:31.268Z,86.28
2023-04-24T06:39:03.770Z,86.38
2023-04-24T06:39:36.295Z,86.48
2023-04-24T06:40:08.889Z,86.38
2023-04-24T06:40:41.311Z,86.69
2023-04-24T06:41:13.846Z,86.28
2023-04-24T06:41:46.366Z,86.38
2023-04-24T06:42:18.872Z,86.28
2023-04-24T06:42:51.393Z,86.48
2023-04-24T06:43:23.920Z,86.38
2023-04-24T06:43:56.408Z,86.07
2023-04-24T06:44:28.909Z,86.18
2023-04-24T06:45:01.460Z,85.97
2023-04-24T06:45:33.950Z,86.58
2023-04-24T06:46:06.491Z,86.90
2023-04-24T06:46:41.025Z,86.58
2023-04-24T06:47:11.520Z,86.38
2023-04-24T06:47:44.328Z,86.38
2023-04-24T06:48:16.570Z,86.18
2023-04-24T06:48:49.093Z,86.48
2023-04-24T06:49:21.588Z,86.58
2023-04-24T06:49:54.128Z,86.48
2023-04-24T06:50:26.657Z,86.69
2023-04-24T06:50:59.151Z,86.58
2023-04-24T06:51:31.669Z,86.69
2023-04-24T06:52:04.218Z,86.58
2023-04-24T06:52:36.688Z,86.48
2023-04-24T06:53:09.231Z,86.18
2023-04-24T06:53:41.733Z,86.28
2023-04-24T06:54:14.265Z,86.48
2023-04-24T06:54:46.766Z,86.58
2023-04-24T06:55:19.562Z,86.69
2023-04-24T06:55:51.874Z,86.58
2023-04-24T06:56:24.407Z,86.58
2023-04-24T06:56:56.919Z,86.69
2023-04-24T06:57:29.507Z,86.90
2023-04-24T06:58:01.985Z,86.85
2023-04-24T06:58:34.520Z,86.38
2023-04-24T06:59:07.000Z,86.44